sensor_id;sensor_type;location;lat;lon;timestamp;pressure;altitude;pressure_sealevel;temperature
65823;BMP180;52585;47.566;19.056;2022-07-29T00:00:07;100412.80;;;24.70
65823;BMP180;52585;47.566;19.056;2022-07-29T00:02:34;100409.00;;;24.70
65823;BMP180;52585;47.566;19.056;2022-07-29T00:05:01;100415.80;;;24.70
65823;BMP180;52585;47.566;19.056;2022-07-29T00:07:27;100417.20;;;24.70
65823;BMP180;52585;47.566;19.056;2022-07-29T00:09:52;100415.20;;;24.64
65823;BMP180;52585;47.566;19.056;2022-07-29T00:12:24;100414.40;;;24.60
65823;BMP180;52585;47.566;19.056;2022-07-29T00:14:50;100410.80;;;24.60
65823;BMP180;52585;47.566;19.056;2022-07-29T00:17:15;100411.20;;;24.60
65823;BMP180;52585;47.566;19.056;2022-07-29T00:19:41;100413.40;;;24.60
65823;BMP180;52585;47.566;19.056;2022-07-29T00:22:07;100414.00;;;24.52
65823;BMP180;52585;47.566;19.056;2022-07-29T00:24:33;100412.00;;;24.50
65823;BMP180;52585;47.566;19.056;2022-07-29T00:26:58;100412.00;;;24.50
65823;BMP180;52585;47.566;19.056;2022-07-29T00:29:24;100410.40;;;24.50
65823;BMP180;52585;47.566;19.056;2022-07-29T00:31:50;100409.80;;;24.50
65823;BMP180;52585;47.566;19.056;2022-07-29T00:34:17;100410.40;;;24.50
65823;BMP180;52585;47.566;19.056;2022-07-29T00:37:01;100409.60;;;24.40
65823;BMP180;52585;47.566;19.056;2022-07-29T00:39:26;100407.80;;;24.40
65823;BMP180;52585;47.566;19.056;2022-07-29T00:41:52;100407.00;;;24.40
65823;BMP180;52585;47.566;19.056;2022-07-29T00:44:18;100415.40;;;24.38
65823;BMP180;52585;47.566;19.056;2022-07-29T00:46:43;100410.40;;;24.30
65823;BMP180;52585;47.566;19.056;2022-07-29T00:49:09;100416.20;;;24.30
65823;BMP180;52585;47.566;19.056;2022-07-29T00:51:37;100409.60;;;24.30
65823;BMP180;52585;47.566;19.056;2022-07-29T00:54:05;100409.20;;;24.30
65823;BMP180;52585;47.566;19.056;2022-07-29T00:56:32;100404.20;;;24.30
65823;BMP180;52585;47.566;19.056;2022-07-29T00:58:58;100408.20;;;24.20
65823;BMP180;52585;47.566;19.056;2022-07-29T01:01:24;100408.00;;;24.20
65823;BMP180;52585;47.566;19.056;2022-07-29T01:07:35;100407.40;;;24.20
65823;BMP180;52585;47.566;19.056;2022-07-29T01:10:07;100402.80;;;24.14
65823;BMP180;52585;47.566;19.056;2022-07-29T01:12:35;100399.80;;;24.10
65823;BMP180;52585;47.566;19.056;2022-07-29T01:15:09;100393.60;;;24.10
65823;BMP180;52585;47.566;19.056;2022-07-29T01:18:04;100394.20;;;24.10
65823;BMP180;52585;47.566;19.056;2022-07-29T01:26:41;100396.80;;;24.00
65823;BMP180;52585;47.566;19.056;2022-07-29T01:29:54;100395.60;;;24.00
65823;BMP180;52585;47.566;19.056;2022-07-29T01:32:31;100393.20;;;24.00
65823;BMP180;52585;47.566;19.056;2022-07-29T01:35:10;100385.20;;;24.00
65823;BMP180;52585;47.566;19.056;2022-07-29T01:38:05;100388.00;;;24.00
65823;BMP180;52585;47.566;19.056;2022-07-29T01:40:49;100389.80;;;23.98
65823;BMP180;52585;47.566;19.056;2022-07-29T01:43:21;100390.20;;;23.96
65823;BMP180;52585;47.566;19.056;2022-07-29T01:45:57;100390.20;;;23.90
65823;BMP180;52585;47.566;19.056;2022-07-29T01:48:47;100390.00;;;23.90
65823;BMP180;52585;47.566;19.056;2022-07-29T01:51:21;100390.60;;;23.90
65823;BMP180;52585;47.566;19.056;2022-07-29T01:54:06;100388.60;;;23.90
65823;BMP180;52585;47.566;19.056;2022-07-29T01:56:36;100386.60;;;23.80
65823;BMP180;52585;47.566;19.056;2022-07-29T01:59:06;100383.60;;;23.80
65823;BMP180;52585;47.566;19.056;2022-07-29T02:01:35;100383.40;;;23.80
65823;BMP180;52585;47.566;19.056;2022-07-29T02:04:05;100383.00;;;23.80
65823;BMP180;52585;47.566;19.056;2022-07-29T02:06:35;100380.60;;;23.80
65823;BMP180;52585;47.566;19.056;2022-07-29T02:09:04;100381.00;;;23.74
65823;BMP180;52585;47.566;19.056;2022-07-29T02:11:34;100381.80;;;23.70
65823;BMP180;52585;47.566;19.056;2022-07-29T02:14:01;100385.00;;;23.70
65823;BMP180;52585;47.566;19.056;2022-07-29T02:16:32;100384.80;;;23.70
65823;BMP180;52585;47.566;19.056;2022-07-29T02:19:02;100386.60;;;23.70
65823;BMP180;52585;47.566;19.056;2022-07-29T02:21:30;100382.20;;;23.66
65823;BMP180;52585;47.566;19.056;2022-07-29T02:24:01;100384.00;;;23.60
65823;BMP180;52585;47.566;19.056;2022-07-29T02:26:29;100379.20;;;23.60
65823;BMP180;52585;47.566;19.056;2022-07-29T02:28:57;100379.00;;;23.56
65823;BMP180;52585;47.566;19.056;2022-07-29T02:31:30;100381.00;;;23.52
65823;BMP180;52585;47.566;19.056;2022-07-29T02:33:57;100376.40;;;23.50
65823;BMP180;52585;47.566;19.056;2022-07-29T02:36:25;100373.80;;;23.50
65823;BMP180;52585;47.566;19.056;2022-07-29T02:39:02;100374.80;;;23.50
65823;BMP180;52585;47.566;19.056;2022-07-29T02:41:52;100372.00;;;23.50
65823;BMP180;52585;47.566;19.056;2022-07-29T02:44:23;100372.60;;;23.48
65823;BMP180;52585;47.566;19.056;2022-07-29T02:47:27;100373.00;;;23.40
65823;BMP180;52585;47.566;19.056;2022-07-29T02:50:24;100374.80;;;23.40
65823;BMP180;52585;47.566;19.056;2022-07-29T02:53:22;100372.00;;;23.40
65823;BMP180;52585;47.566;19.056;2022-07-29T02:56:11;100371.20;;;23.36
65823;BMP180;52585;47.566;19.056;2022-07-29T02:58:45;100373.40;;;23.30
65823;BMP180;52585;47.566;19.056;2022-07-29T03:01:25;100370.00;;;23.30
65823;BMP180;52585;47.566;19.056;2022-07-29T03:03:55;100376.00;;;23.30
65823;BMP180;52585;47.566;19.056;2022-07-29T03:06:24;100374.80;;;23.30
65823;BMP180;52585;47.566;19.056;2022-07-29T03:08:51;100378.20;;;23.30
65823;BMP180;52585;47.566;19.056;2022-07-29T03:11:18;100380.20;;;23.20
65823;BMP180;52585;47.566;19.056;2022-07-29T03:13:45;100377.00;;;23.20
65823;BMP180;52585;47.566;19.056;2022-07-29T03:16:12;100375.80;;;23.20
65823;BMP180;52585;47.566;19.056;2022-07-29T03:18:39;100378.20;;;23.20
65823;BMP180;52585;47.566;19.056;2022-07-29T03:21:05;100380.40;;;23.20
65823;BMP180;52585;47.566;19.056;2022-07-29T03:23:33;100381.80;;;23.20
65823;BMP180;52585;47.566;19.056;2022-07-29T03:25:59;100381.80;;;23.18
65823;BMP180;52585;47.566;19.056;2022-07-29T03:28:26;100379.60;;;23.10
65823;BMP180;52585;47.566;19.056;2022-07-29T03:31:01;100382.40;;;23.10
65823;BMP180;52585;47.566;19.056;2022-07-29T03:33:30;100383.80;;;23.10
65823;BMP180;52585;47.566;19.056;2022-07-29T03:35:56;100378.60;;;23.10
65823;BMP180;52585;47.566;19.056;2022-07-29T03:38:26;100379.80;;;23.06
65823;BMP180;52585;47.566;19.056;2022-07-29T03:41:09;100379.20;;;23.00
65823;BMP180;52585;47.566;19.056;2022-07-29T03:43:38;100373.60;;;23.00
65823;BMP180;52585;47.566;19.056;2022-07-29T03:46:09;100374.40;;;23.00
65823;BMP180;52585;47.566;19.056;2022-07-29T03:48:39;100374.40;;;23.00
65823;BMP180;52585;47.566;19.056;2022-07-29T03:51:07;100381.40;;;23.00
65823;BMP180;52585;47.566;19.056;2022-07-29T03:53:33;100380.80;;;23.00
65823;BMP180;52585;47.566;19.056;2022-07-29T03:56:02;100382.80;;;22.98
65823;BMP180;52585;47.566;19.056;2022-07-29T03:58:31;100386.80;;;22.92
65823;BMP180;52585;47.566;19.056;2022-07-29T04:00:58;100388.40;;;22.90
65823;BMP180;52585;47.566;19.056;2022-07-29T04:03:25;100387.20;;;22.90
65823;BMP180;52585;47.566;19.056;2022-07-29T04:06:06;100389.40;;;22.90
65823;BMP180;52585;47.566;19.056;2022-07-29T04:08:34;100392.80;;;22.90
65823;BMP180;52585;47.566;19.056;2022-07-29T04:11:01;100395.80;;;22.90
65823;BMP180;52585;47.566;19.056;2022-07-29T04:13:27;100392.40;;;22.90
65823;BMP180;52585;47.566;19.056;2022-07-29T04:15:53;100394.00;;;22.92
65823;BMP180;52585;47.566;19.056;2022-07-29T04:18:18;100394.60;;;22.92
65823;BMP180;52585;47.566;19.056;2022-07-29T04:20:44;100393.20;;;22.94
65823;BMP180;52585;47.566;19.056;2022-07-29T04:23:10;100395.00;;;22.92
65823;BMP180;52585;47.566;19.056;2022-07-29T04:25:40;100395.40;;;23.00
65823;BMP180;52585;47.566;19.056;2022-07-29T04:28:08;100395.40;;;23.00
65823;BMP180;52585;47.566;19.056;2022-07-29T04:30:36;100392.00;;;23.00
65823;BMP180;52585;47.566;19.056;2022-07-29T04:33:05;100396.40;;;23.00
65823;BMP180;52585;47.566;19.056;2022-07-29T04:35:36;100395.40;;;23.00
65823;BMP180;52585;47.566;19.056;2022-07-29T04:38:04;100396.60;;;23.00
65823;BMP180;52585;47.566;19.056;2022-07-29T04:40:30;100394.00;;;23.00
65823;BMP180;52585;47.566;19.056;2022-07-29T04:43:00;100394.60;;;23.04
65823;BMP180;52585;47.566;19.056;2022-07-29T04:45:26;100390.00;;;23.10
65823;BMP180;52585;47.566;19.056;2022-07-29T04:47:52;100392.20;;;23.10
65823;BMP180;52585;47.566;19.056;2022-07-29T04:50:18;100389.60;;;23.10
65823;BMP180;52585;47.566;19.056;2022-07-29T04:52:44;100391.60;;;23.10
65823;BMP180;52585;47.566;19.056;2022-07-29T04:55:09;100390.80;;;23.10
65823;BMP180;52585;47.566;19.056;2022-07-29T04:57:36;100392.80;;;23.16
65823;BMP180;52585;47.566;19.056;2022-07-29T05:00:04;100401.20;;;23.20
65823;BMP180;52585;47.566;19.056;2022-07-29T05:02:30;100398.40;;;23.20
65823;BMP180;52585;47.566;19.056;2022-07-29T05:04:56;100396.60;;;23.20
65823;BMP180;52585;47.566;19.056;2022-07-29T05:07:22;100398.80;;;23.20
65823;BMP180;52585;47.566;19.056;2022-07-29T05:09:48;100397.40;;;23.20
65823;BMP180;52585;47.566;19.056;2022-07-29T05:12:14;100399.00;;;23.20
65823;BMP180;52585;47.566;19.056;2022-07-29T05:14:40;100397.80;;;23.30
65823;BMP180;52585;47.566;19.056;2022-07-29T05:17:06;100397.40;;;23.30
65823;BMP180;52585;47.566;19.056;2022-07-29T05:19:31;100399.40;;;23.30
65823;BMP180;52585;47.566;19.056;2022-07-29T05:21:57;100397.80;;;23.30
65823;BMP180;52585;47.566;19.056;2022-07-29T05:24:22;100397.40;;;23.36
65823;BMP180;52585;47.566;19.056;2022-07-29T05:26:48;100391.00;;;23.40
65823;BMP180;52585;47.566;19.056;2022-07-29T05:29:14;100394.60;;;23.40
65823;BMP180;52585;47.566;19.056;2022-07-29T05:31:40;100395.80;;;23.40
65823;BMP180;52585;47.566;19.056;2022-07-29T05:34:05;100398.00;;;23.42
65823;BMP180;52585;47.566;19.056;2022-07-29T05:36:31;100393.20;;;23.50
65823;BMP180;52585;47.566;19.056;2022-07-29T05:38:57;100396.00;;;23.50
65823;BMP180;52585;47.566;19.056;2022-07-29T05:41:23;100397.00;;;23.50
65823;BMP180;52585;47.566;19.056;2022-07-29T05:43:49;100396.20;;;23.58
65823;BMP180;52585;47.566;19.056;2022-07-29T05:46:14;100396.60;;;23.60
65823;BMP180;52585;47.566;19.056;2022-07-29T05:48:40;100400.40;;;23.60
65823;BMP180;52585;47.566;19.056;2022-07-29T05:51:06;100400.20;;;23.60
65823;BMP180;52585;47.566;19.056;2022-07-29T05:53:31;100401.40;;;23.70
65823;BMP180;52585;47.566;19.056;2022-07-29T05:55:57;100393.80;;;23.70
65823;BMP180;52585;47.566;19.056;2022-07-29T05:58:23;100400.40;;;23.70
65823;BMP180;52585;47.566;19.056;2022-07-29T06:00:49;100397.60;;;23.80
65823;BMP180;52585;47.566;19.056;2022-07-29T06:03:14;100403.60;;;23.80
65823;BMP180;52585;47.566;19.056;2022-07-29T06:05:40;100402.20;;;23.80
65823;BMP180;52585;47.566;19.056;2022-07-29T06:08:06;100401.60;;;23.90
65823;BMP180;52585;47.566;19.056;2022-07-29T06:10:34;100401.20;;;23.90
65823;BMP180;52585;47.566;19.056;2022-07-29T06:13:00;100399.80;;;23.90
65823;BMP180;52585;47.566;19.056;2022-07-29T06:15:26;100401.20;;;24.00
65823;BMP180;52585;47.566;19.056;2022-07-29T06:17:52;100401.40;;;24.00
65823;BMP180;52585;47.566;19.056;2022-07-29T06:20:18;100400.80;;;24.02
65823;BMP180;52585;47.566;19.056;2022-07-29T06:22:50;100406.20;;;24.10
65823;BMP180;52585;47.566;19.056;2022-07-29T06:25:16;100403.60;;;24.10
65823;BMP180;52585;47.566;19.056;2022-07-29T06:27:42;100404.20;;;24.18
65823;BMP180;52585;47.566;19.056;2022-07-29T06:30:08;100403.40;;;24.20
65823;BMP180;52585;47.566;19.056;2022-07-29T06:32:35;100407.00;;;24.22
65823;BMP180;52585;47.566;19.056;2022-07-29T06:35:04;100409.20;;;24.30
65823;BMP180;52585;47.566;19.056;2022-07-29T06:37:31;100406.60;;;24.30
65823;BMP180;52585;47.566;19.056;2022-07-29T06:39:56;100411.20;;;24.36
65823;BMP180;52585;47.566;19.056;2022-07-29T06:42:44;100412.40;;;24.40
65823;BMP180;52585;47.566;19.056;2022-07-29T06:45:13;100414.40;;;24.40
65823;BMP180;52585;47.566;19.056;2022-07-29T06:47:39;100419.60;;;24.50
65823;BMP180;52585;47.566;19.056;2022-07-29T06:50:06;100416.20;;;24.50
65823;BMP180;52585;47.566;19.056;2022-07-29T06:52:31;100421.40;;;24.56
65823;BMP180;52585;47.566;19.056;2022-07-29T06:54:57;100417.40;;;24.60
65823;BMP180;52585;47.566;19.056;2022-07-29T06:57:23;100419.20;;;24.60
65823;BMP180;52585;47.566;19.056;2022-07-29T06:59:49;100417.40;;;24.62
65823;BMP180;52585;47.566;19.056;2022-07-29T07:02:15;100422.20;;;24.70
65823;BMP180;52585;47.566;19.056;2022-07-29T07:04:40;100419.80;;;24.70
65823;BMP180;52585;47.566;19.056;2022-07-29T07:07:06;100417.00;;;24.70
65823;BMP180;52585;47.566;19.056;2022-07-29T07:09:32;100417.40;;;24.78
65823;BMP180;52585;47.566;19.056;2022-07-29T07:11:57;100417.00;;;24.80
65823;BMP180;52585;47.566;19.056;2022-07-29T07:14:23;100419.20;;;24.80
65823;BMP180;52585;47.566;19.056;2022-07-29T07:16:52;100417.00;;;24.90
65823;BMP180;52585;47.566;19.056;2022-07-29T07:19:17;100411.60;;;24.90
65823;BMP180;52585;47.566;19.056;2022-07-29T07:21:44;100411.80;;;24.90
65823;BMP180;52585;47.566;19.056;2022-07-29T07:24:10;100408.80;;;25.00
65823;BMP180;52585;47.566;19.056;2022-07-29T07:26:35;100412.80;;;25.02
65823;BMP180;52585;47.566;19.056;2022-07-29T07:29:01;100411.00;;;25.10
65823;BMP180;52585;47.566;19.056;2022-07-29T07:31:30;100412.40;;;25.14
65823;BMP180;52585;47.566;19.056;2022-07-29T07:33:56;100413.20;;;25.20
65823;BMP180;52585;47.566;19.056;2022-07-29T07:39:21;100411.80;;;25.36
65823;BMP180;52585;47.566;19.056;2022-07-29T07:42:12;100412.00;;;25.40
65823;BMP180;52585;47.566;19.056;2022-07-29T07:44:39;100414.20;;;25.50
65823;BMP180;52585;47.566;19.056;2022-07-29T07:47:05;100412.00;;;25.50
65823;BMP180;52585;47.566;19.056;2022-07-29T07:49:31;100406.80;;;25.58
65823;BMP180;52585;47.566;19.056;2022-07-29T07:51:56;100403.40;;;25.60
65823;BMP180;52585;47.566;19.056;2022-07-29T07:54:22;100405.20;;;25.62
65823;BMP180;52585;47.566;19.056;2022-07-29T07:56:48;100406.00;;;25.70
65823;BMP180;52585;47.566;19.056;2022-07-29T07:59:16;100403.40;;;25.76
65823;BMP180;52585;47.566;19.056;2022-07-29T08:01:42;100399.40;;;25.80
65823;BMP180;52585;47.566;19.056;2022-07-29T08:04:09;100398.00;;;25.80
65823;BMP180;52585;47.566;19.056;2022-07-29T08:06:35;100393.40;;;25.90
65823;BMP180;52585;47.566;19.056;2022-07-29T08:09:04;100395.60;;;25.90
65823;BMP180;52585;47.566;19.056;2022-07-29T08:11:31;100396.80;;;26.00
65823;BMP180;52585;47.566;19.056;2022-07-29T08:13:58;100394.20;;;26.02
65823;BMP180;52585;47.566;19.056;2022-07-29T08:16:27;100389.80;;;26.10
65823;BMP180;52585;47.566;19.056;2022-07-29T08:18:53;100393.00;;;26.20
65823;BMP180;52585;47.566;19.056;2022-07-29T08:21:24;100387.60;;;26.20
65823;BMP180;52585;47.566;19.056;2022-07-29T08:23:51;100390.00;;;26.30
65823;BMP180;52585;47.566;19.056;2022-07-29T08:26:43;100387.20;;;26.36
65823;BMP180;52585;47.566;19.056;2022-07-29T08:29:10;100387.20;;;26.40
65823;BMP180;52585;47.566;19.056;2022-07-29T08:31:38;100387.00;;;26.50
65823;BMP180;52585;47.566;19.056;2022-07-29T08:34:05;100384.20;;;26.60
65823;BMP180;52585;47.566;19.056;2022-07-29T08:36:33;100387.80;;;26.60
65823;BMP180;52585;47.566;19.056;2022-07-29T08:39:00;100383.60;;;26.70
65823;BMP180;52585;47.566;19.056;2022-07-29T08:41:26;100387.20;;;26.72
65823;BMP180;52585;47.566;19.056;2022-07-29T08:43:52;100384.20;;;26.80
65823;BMP180;52585;47.566;19.056;2022-07-29T08:46:19;100384.20;;;26.90
65823;BMP180;52585;47.566;19.056;2022-07-29T08:48:46;100387.60;;;26.90
65823;BMP180;52585;47.566;19.056;2022-07-29T08:51:16;100386.20;;;27.00
65823;BMP180;52585;47.566;19.056;2022-07-29T08:53:44;100382.00;;;27.06
65823;BMP180;52585;47.566;19.056;2022-07-29T08:56:16;100383.20;;;27.10
65823;BMP180;52585;47.566;19.056;2022-07-29T08:58:47;100384.00;;;27.20
65823;BMP180;52585;47.566;19.056;2022-07-29T09:01:22;100378.40;;;27.30
65823;BMP180;52585;47.566;19.056;2022-07-29T09:03:49;100376.80;;;27.30
65823;BMP180;52585;47.566;19.056;2022-07-29T09:06:21;100375.80;;;27.40
65823;BMP180;52585;47.566;19.056;2022-07-29T09:08:47;100378.40;;;27.40
65823;BMP180;52585;47.566;19.056;2022-07-29T09:11:14;100379.60;;;27.48
65823;BMP180;52585;47.566;19.056;2022-07-29T09:13:40;100372.80;;;27.50
65823;BMP180;52585;47.566;19.056;2022-07-29T09:16:07;100372.00;;;27.50
65823;BMP180;52585;47.566;19.056;2022-07-29T09:18:41;100373.80;;;27.50
65823;BMP180;52585;47.566;19.056;2022-07-29T09:21:12;100368.40;;;27.60
65823;BMP180;52585;47.566;19.056;2022-07-29T09:24:12;100368.00;;;27.60
65823;BMP180;52585;47.566;19.056;2022-07-29T09:26:42;100363.20;;;27.62
65823;BMP180;52585;47.566;19.056;2022-07-29T09:29:17;100364.40;;;27.70
65823;BMP180;52585;47.566;19.056;2022-07-29T09:31:49;100360.60;;;27.70
65823;BMP180;52585;47.566;19.056;2022-07-29T09:34:23;100363.00;;;27.78
65823;BMP180;52585;47.566;19.056;2022-07-29T09:36:50;100362.40;;;27.80
65823;BMP180;52585;47.566;19.056;2022-07-29T09:39:45;100358.00;;;27.80
65823;BMP180;52585;47.566;19.056;2022-07-29T09:42:13;100357.20;;;27.90
65823;BMP180;52585;47.566;19.056;2022-07-29T09:44:52;100350.80;;;28.00
65823;BMP180;52585;47.566;19.056;2022-07-29T09:47:19;100347.80;;;28.10
65823;BMP180;52585;47.566;19.056;2022-07-29T09:49:57;100346.20;;;28.14
65823;BMP180;52585;47.566;19.056;2022-07-29T09:52:28;100347.20;;;28.30
65823;BMP180;52585;47.566;19.056;2022-07-29T09:55:16;100342.40;;;28.38
65823;BMP180;52585;47.566;19.056;2022-07-29T09:57:46;100338.60;;;28.40
65823;BMP180;52585;47.566;19.056;2022-07-29T10:00:19;100338.40;;;28.50
65823;BMP180;52585;47.566;19.056;2022-07-29T10:02:47;100335.40;;;28.60
65823;BMP180;52585;47.566;19.056;2022-07-29T10:05:26;100325.60;;;28.62
65823;BMP180;52585;47.566;19.056;2022-07-29T10:07:57;100327.60;;;28.70
65823;BMP180;52585;47.566;19.056;2022-07-29T10:10:25;100332.40;;;28.80
65823;BMP180;52585;47.566;19.056;2022-07-29T10:13:06;100328.00;;;28.82
65823;BMP180;52585;47.566;19.056;2022-07-29T10:15:37;100329.80;;;28.90
65823;BMP180;52585;47.566;19.056;2022-07-29T10:18:08;100322.20;;;28.96
65823;BMP180;52585;47.566;19.056;2022-07-29T10:20:35;100316.40;;;29.00
65823;BMP180;52585;47.566;19.056;2022-07-29T10:23:01;100313.60;;;29.10
65823;BMP180;52585;47.566;19.056;2022-07-29T10:25:27;100313.00;;;29.18
65823;BMP180;52585;47.566;19.056;2022-07-29T10:27:53;100310.00;;;29.20
65823;BMP180;52585;47.566;19.056;2022-07-29T10:30:22;100308.00;;;29.22
65823;BMP180;52585;47.566;19.056;2022-07-29T10:42:27;100302.60;;;29.30
65823;BMP180;52585;47.566;19.056;2022-07-29T10:44:55;100301.80;;;29.40
65823;BMP180;52585;47.566;19.056;2022-07-29T10:47:26;100296.20;;;29.40
65823;BMP180;52585;47.566;19.056;2022-07-29T10:50:04;100299.60;;;29.40
65823;BMP180;52585;47.566;19.056;2022-07-29T10:52:55;100299.80;;;29.50
65823;BMP180;52585;47.566;19.056;2022-07-29T10:55:38;100287.60;;;29.60
65823;BMP180;52585;47.566;19.056;2022-07-29T10:58:21;100291.00;;;29.70
65823;BMP180;52585;47.566;19.056;2022-07-29T11:00:51;100287.60;;;29.70
65823;BMP180;52585;47.566;19.056;2022-07-29T11:03:49;100287.00;;;29.70
65823;BMP180;52585;47.566;19.056;2022-07-29T11:06:18;100288.20;;;29.80
65823;BMP180;52585;47.566;19.056;2022-07-29T11:08:44;100284.60;;;29.76
65823;BMP180;52585;47.566;19.056;2022-07-29T11:11:33;100283.80;;;29.80
65823;BMP180;52585;47.566;19.056;2022-07-29T11:14:01;100277.00;;;29.80
65823;BMP180;52585;47.566;19.056;2022-07-29T11:17:04;100274.80;;;29.80
65823;BMP180;52585;47.566;19.056;2022-07-29T11:19:30;100271.60;;;29.80
65823;BMP180;52585;47.566;19.056;2022-07-29T11:21:57;100272.60;;;29.80
65823;BMP180;52585;47.566;19.056;2022-07-29T11:24:29;100273.20;;;29.70
65823;BMP180;52585;47.566;19.056;2022-07-29T11:27:15;100268.40;;;29.70
65823;BMP180;52585;47.566;19.056;2022-07-29T11:29:57;100270.00;;;29.60
65823;BMP180;52585;47.566;19.056;2022-07-29T11:32:37;100269.60;;;29.60
65823;BMP180;52585;47.566;19.056;2022-07-29T11:35:23;100266.60;;;29.50
65823;BMP180;52585;47.566;19.056;2022-07-29T11:38:27;100263.80;;;29.50
65823;BMP180;52585;47.566;19.056;2022-07-29T11:41:24;100259.20;;;29.50
65823;BMP180;52585;47.566;19.056;2022-07-29T11:46:45;100255.80;;;29.42
65823;BMP180;52585;47.566;19.056;2022-07-29T11:49:12;100253.20;;;29.40
65823;BMP180;52585;47.566;19.056;2022-07-29T11:51:39;100252.80;;;29.40
65823;BMP180;52585;47.566;19.056;2022-07-29T11:54:12;100249.80;;;29.40
65823;BMP180;52585;47.566;19.056;2022-07-29T11:56:42;100247.20;;;29.40
65823;BMP180;52585;47.566;19.056;2022-07-29T11:59:11;100246.20;;;29.40
65823;BMP180;52585;47.566;19.056;2022-07-29T12:01:51;100246.60;;;29.36
65823;BMP180;52585;47.566;19.056;2022-07-29T12:04:17;100244.20;;;29.30
65823;BMP180;52585;47.566;19.056;2022-07-29T12:06:54;100240.00;;;29.30
65823;BMP180;52585;47.566;19.056;2022-07-29T12:09:23;100243.40;;;29.30
65823;BMP180;52585;47.566;19.056;2022-07-29T12:11:59;100237.60;;;29.30
65823;BMP180;52585;47.566;19.056;2022-07-29T12:14:30;100232.80;;;29.30
65823;BMP180;52585;47.566;19.056;2022-07-29T12:16:58;100232.00;;;29.30
65823;BMP180;52585;47.566;19.056;2022-07-29T12:19:23;100224.40;;;29.30
65823;BMP180;52585;47.566;19.056;2022-07-29T12:21:54;100219.40;;;29.30
65823;BMP180;52585;47.566;19.056;2022-07-29T12:24:21;100218.60;;;29.22
65823;BMP180;52585;47.566;19.056;2022-07-29T12:29:20;100213.00;;;29.20
65823;BMP180;52585;47.566;19.056;2022-07-29T12:31:50;100206.40;;;29.20
65823;BMP180;52585;47.566;19.056;2022-07-29T12:34:23;100211.00;;;29.10
65823;BMP180;52585;47.566;19.056;2022-07-29T12:36:50;100203.00;;;29.10
65823;BMP180;52585;47.566;19.056;2022-07-29T12:39:17;100199.80;;;29.10
65823;BMP180;52585;47.566;19.056;2022-07-29T12:41:44;100196.00;;;29.10
65823;BMP180;52585;47.566;19.056;2022-07-29T12:44:11;100191.20;;;29.10
65823;BMP180;52585;47.566;19.056;2022-07-29T12:46:37;100187.40;;;29.10
65823;BMP180;52585;47.566;19.056;2022-07-29T12:49:04;100182.00;;;29.10
65823;BMP180;52585;47.566;19.056;2022-07-29T12:51:36;100181.00;;;29.10
65823;BMP180;52585;47.566;19.056;2022-07-29T12:56:28;100178.00;;;29.10
65823;BMP180;52585;47.566;19.056;2022-07-29T12:58:54;100172.00;;;29.14
65823;BMP180;52585;47.566;19.056;2022-07-29T13:01:20;100177.00;;;29.10
65823;BMP180;52585;47.566;19.056;2022-07-29T13:03:53;100173.00;;;29.10
65823;BMP180;52585;47.566;19.056;2022-07-29T13:06:47;100172.40;;;29.10
65823;BMP180;52585;47.566;19.056;2022-07-29T13:09:20;100169.20;;;29.18
65823;BMP180;52585;47.566;19.056;2022-07-29T13:11:52;100163.20;;;29.20
65823;BMP180;52585;47.566;19.056;2022-07-29T13:14:39;100162.80;;;29.12
65823;BMP180;52585;47.566;19.056;2022-07-29T13:17:14;100155.00;;;29.10
65823;BMP180;52585;47.566;19.056;2022-07-29T13:19:45;100156.40;;;29.20
65823;BMP180;52585;47.566;19.056;2022-07-29T13:22:21;100151.60;;;29.30
65823;BMP180;52585;47.566;19.056;2022-07-29T13:24:58;100153.80;;;29.40
65823;BMP180;52585;47.566;19.056;2022-07-29T13:27:30;100148.00;;;29.50
65823;BMP180;52585;47.566;19.056;2022-07-29T13:30:00;100147.00;;;29.56
65823;BMP180;52585;47.566;19.056;2022-07-29T13:32:28;100142.00;;;29.60
65823;BMP180;52585;47.566;19.056;2022-07-29T13:34:57;100142.00;;;29.70
65823;BMP180;52585;47.566;19.056;2022-07-29T13:37:23;100141.60;;;29.76
65823;BMP180;52585;47.566;19.056;2022-07-29T13:39:49;100142.80;;;29.80
65823;BMP180;52585;47.566;19.056;2022-07-29T13:42:15;100140.60;;;29.90
65823;BMP180;52585;47.566;19.056;2022-07-29T13:44:41;100133.40;;;29.90
65823;BMP180;52585;47.566;19.056;2022-07-29T13:47:08;100133.40;;;30.00
65823;BMP180;52585;47.566;19.056;2022-07-29T13:49:34;100124.80;;;30.00
65823;BMP180;52585;47.566;19.056;2022-07-29T13:52:01;100119.00;;;30.00
65823;BMP180;52585;47.566;19.056;2022-07-29T13:54:27;100117.20;;;30.10
65823;BMP180;52585;47.566;19.056;2022-07-29T13:56:52;100116.80;;;30.10
65823;BMP180;52585;47.566;19.056;2022-07-29T13:59:19;100117.80;;;30.10
65823;BMP180;52585;47.566;19.056;2022-07-29T14:01:44;100120.60;;;30.20
65823;BMP180;52585;47.566;19.056;2022-07-29T14:04:11;100112.40;;;30.20
65823;BMP180;52585;47.566;19.056;2022-07-29T14:06:37;100107.80;;;30.20
65823;BMP180;52585;47.566;19.056;2022-07-29T14:09:04;100113.00;;;30.20
65823;BMP180;52585;47.566;19.056;2022-07-29T14:11:32;100110.40;;;30.20
65823;BMP180;52585;47.566;19.056;2022-07-29T14:13:58;100107.20;;;30.20
65823;BMP180;52585;47.566;19.056;2022-07-29T14:16:24;100109.40;;;30.20
65823;BMP180;52585;47.566;19.056;2022-07-29T14:18:50;100113.60;;;30.20
65823;BMP180;52585;47.566;19.056;2022-07-29T14:21:15;100104.00;;;30.20
65823;BMP180;52585;47.566;19.056;2022-07-29T14:23:41;100102.00;;;30.20
65823;BMP180;52585;47.566;19.056;2022-07-29T14:26:06;100103.20;;;30.20
65823;BMP180;52585;47.566;19.056;2022-07-29T14:28:32;100101.40;;;30.20
65823;BMP180;52585;47.566;19.056;2022-07-29T14:30:58;100106.20;;;30.20